Time;durP1;ratioP1;P1;durP2;ratioP2;P2;SDS_P1;SDS_P2;PMS_P1;PMS_P2;Temp;Humidity;BMP_temperature;BMP_pressure;BME280_temperature;BME280_humidity;BME280_pressure;Samples;Min_cycle;Max_cycle;Signal;HPM_P1;HPM_P2
2021/04/05 00:00:49;;;;;;;21.98;3.08;;;;;;;;;;5072056;28;20100;-60
2021/04/05 00:03:16;;;;;;;23.90;2.28;;;;;;;;;;5072943;28;20521;-60
2021/04/05 00:05:43;;;;;;;33.65;3.00;;;;;;;;;;5072561;28;20049;-61
2021/04/05 00:08:10;;;;;;;30.63;3.22;;;;;;;;;;5073394;28;20490;-60
2021/04/05 00:10:40;;;;;;;28.42;3.05;;;;;;;;;;5073228;28;20032;-60
2021/04/05 00:13:09;;;;;;;22.58;2.70;;;;;;;;;;5072911;28;20021;-62
2021/04/05 00:15:36;;;;;;;28.65;2.60;;;;;;;;;;5076809;28;20070;-60
2021/04/05 00:18:04;;;;;;;20.00;2.28;;;;;;;;;;5073790;28;20044;-60
2021/04/05 00:20:36;;;;;;;22.95;2.42;;;;;;;;;;5073145;28;20094;-60
2021/04/05 00:23:02;;;;;;;;;;;;;;;;;;5074575;28;20091;-61
2021/04/05 00:25:30;;;;;;;23.83;2.83;;;;;;;;;;5073533;28;19947;-61
2021/04/05 00:27:57;;;;;;;21.80;2.15;;;;;;;;;;5074071;28;20621;-62
2021/04/05 00:30:26;;;;;;;20.17;2.22;;;;;;;;;;5073826;28;20074;-64
2021/04/05 00:32:53;;;;;;;23.52;2.75;;;;;;;;;;5076081;28;20039;-62
2021/04/05 00:35:21;;;;;;;21.58;3.05;;;;;;;;;;5076067;28;20025;-63
2021/04/05 00:37:52;;;;;;;17.98;2.30;;;;;;;;;;5076424;28;20035;-63
2021/04/05 00:40:21;;;;;;;29.77;3.08;;;;;;;;;;5075800;28;20028;-63
2021/04/05 00:42:48;;;;;;;15.07;2.13;;;;;;;;;;5073855;28;20067;-63
2021/04/05 00:45:17;;;;;;;19.08;2.45;;;;;;;;;;5074211;28;20024;-64
2021/04/05 00:47:45;;;;;;;19.85;2.80;;;;;;;;;;5076849;28;20457;-64
2021/04/05 00:50:13;;;;;;;19.80;2.53;;;;;;;;;;5074420;28;20483;-62
2021/04/05 00:52:40;;;;;;;24.55;3.08;;;;;;;;;;5080643;28;20111;-63
2021/04/05 00:55:08;;;;;;;18.35;2.90;;;;;;;;;;5076365;28;20099;-60
2021/04/05 00:57:35;;;;;;;22.33;3.10;;;;;;;;;;5073419;28;20491;-60
2021/04/05 01:00:06;;;;;;;25.05;2.85;;;;;;;;;;5072382;28;20028;-60
2021/04/05 01:02:35;;;;;;;23.63;3.42;;;;;;;;;;5075256;28;20048;-60
2021/04/05 01:05:02;;;;;;;15.18;2.40;;;;;;;;;;5073485;28;20412;-60
2021/04/05 01:07:29;;;;;;;19.00;2.90;;;;;;;;;;5074832;28;20120;-63
2021/04/05 01:09:56;;;;;;;11.98;2.53;;;;;;;;;;5073547;28;20534;-59
2021/04/05 01:12:23;;;;;;;22.88;2.65;;;;;;;;;;5073510;28;20028;-61
2021/04/05 01:14:50;;;;;;;23.73;3.25;;;;;;;;;;5075459;28;20008;-60
2021/04/05 01:17:17;;;;;;;10.25;2.10;;;;;;;;;;5074898;28;20025;-60
2021/04/05 01:19:44;;;;;;;19.10;1.88;;;;;;;;;;5075245;28;20091;-59
2021/04/05 01:22:12;;;;;;;17.48;2.42;;;;;;;;;;5072477;28;20025;-59
2021/04/05 01:24:40;;;;;;;15.25;2.17;;;;;;;;;;5072036;28;20073;-61
2021/04/05 01:27:08;;;;;;;18.50;2.53;;;;;;;;;;5071149;28;20035;-61
2021/04/05 01:29:36;;;;;;;17.73;2.60;;;;;;;;;;5071634;28;20091;-59
2021/04/05 01:32:03;;;;;;;16.10;2.50;;;;;;;;;;5071978;28;20031;-60
2021/04/05 01:34:30;;;;;;;18.50;2.42;;;;;;;;;;5071170;28;20495;-63
2021/04/05 01:37:01;;;;;;;15.50;2.30;;;;;;;;;;5071102;28;20044;-60
2021/04/05 01:39:28;;;;;;;20.67;2.25;;;;;;;;;;5072427;28;20099;-60
2021/04/05 01:42:01;;;;;;;15.40;2.20;;;;;;;;;;5072129;28;20056;-58
2021/04/05 01:44:28;;;;;;;12.18;2.00;;;;;;;;;;5072439;28;20472;-60
2021/04/05 01:46:56;;;;;;;16.92;2.20;;;;;;;;;;5072546;28;20512;-59
2021/04/05 01:49:23;;;;;;;23.05;2.80;;;;;;;;;;5074668;28;20036;-59
2021/04/05 01:51:53;;;;;;;15.73;2.22;;;;;;;;;;5072372;28;20020;-60
2021/04/05 01:54:20;;;;;;;13.07;2.25;;;;;;;;;;5081639;28;20023;-60
2021/04/05 01:56:49;;;;;;;14.93;2.40;;;;;;;;;;5071037;28;20024;-59
2021/04/05 01:59:17;;;;;;;10.43;2.10;;;;;;;;;;5071659;28;20027;-61
2021/04/05 02:01:45;;;;;;;7.53;1.67;;;;;;;;;;5071285;28;20020;-59
2021/04/05 02:04:12;;;;;;;14.43;2.35;;;;;;;;;;5071194;28;20020;-60
2021/04/05 02:06:42;;;;;;;12.32;1.92;;;;;;;;;;5072463;28;20063;-60
2021/04/05 02:09:10;;;;;;;12.18;2.00;;;;;;;;;;5072896;28;20027;-60
2021/04/05 02:11:38;;;;;;;9.95;1.70;;;;;;;;;;5073312;28;20025;-60
2021/04/05 02:14:06;;;;;;;16.20;2.28;;;;;;;;;;5073901;28;20104;-59
2021/04/05 02:16:34;;;;;;;12.63;1.70;;;;;;;;;;5083095;28;20091;-61
2021/04/05 02:19:01;;;;;;;11.90;1.98;;;;;;;;;;5072176;28;20028;-60
2021/04/05 02:21:29;;;;;;;12.85;1.85;;;;;;;;;;5072093;28;20021;-61
2021/04/05 02:24:02;;;;;;;9.95;2.17;;;;;;;;;;5073457;28;20029;-61
2021/04/05 02:26:34;;;;;;;10.88;1.65;;;;;;;;;;5073159;28;20024;-61
2021/04/05 02:29:02;;;;;;;8.68;1.63;;;;;;;;;;5073226;28;20463;-60
2021/04/05 02:31:32;;;;;;;11.88;2.10;;;;;;;;;;5073164;28;20376;-62
2021/04/05 02:34:00;;;;;;;10.98;2.03;;;;;;;;;;5073111;28;20033;-61
2021/04/05 02:36:31;;;;;;;8.27;1.50;;;;;;;;;;5073060;28;20048;-60
2021/04/05 02:38:59;;;;;;;7.77;1.60;;;;;;;;;;5072964;28;20365;-60
2021/04/05 02:41:28;;;;;;;7.90;1.60;;;;;;;;;;5073044;28;20031;-60
2021/04/05 02:43:56;;;;;;;7.30;1.52;;;;;;;;;;5072933;28;20028;-60
2021/04/05 02:46:35;;;;;;;6.38;1.40;;;;;;;;;;5072733;28;20056;-60
2021/04/05 02:49:02;;;;;;;8.13;1.50;;;;;;;;;;5072945;28;20025;-59
2021/04/05 02:51:30;;;;;;;8.10;1.20;;;;;;;;;;5072923;28;20032;-59
2021/04/05 02:54:01;;;;;;;8.55;1.50;;;;;;;;;;5072559;28;20021;-59
2021/04/05 02:56:31;;;;;;;8.75;1.50;;;;;;;;;;5072773;28;20024;-59
2021/04/05 02:58:58;;;;;;;10.50;1.70;;;;;;;;;;5072724;28;20107;-59
2021/04/05 03:01:26;;;;;;;7.43;1.60;;;;;;;;;;5072504;28;20499;-59
2021/04/05 03:03:57;;;;;;;14.20;1.52;;;;;;;;;;5072732;28;20526;-61
2021/04/05 03:06:24;;;;;;;11.73;1.88;;;;;;;;;;5072526;28;20033;-59
2021/04/05 03:08:51;;;;;;;5.72;1.27;;;;;;;;;;5072821;28;20467;-59
2021/04/05 03:11:21;;;;;;;5.43;1.25;;;;;;;;;;5072497;28;20016;-59
2021/04/05 03:13:48;;;;;;;8.43;1.55;;;;;;;;;;5072386;28;20024;-59
2021/04/05 03:16:20;;;;;;;8.43;1.80;;;;;;;;;;5071435;28;20115;-60
2021/04/05 03:18:48;;;;;;;7.20;1.58;;;;;;;;;;5072492;28;20095;-59
2021/04/05 03:21:15;;;;;;;7.63;1.52;;;;;;;;;;5072366;28;20024;-59
2021/04/05 03:23:43;;;;;;;5.28;1.15;;;;;;;;;;5072496;28;20028;-59
2021/04/05 03:26:10;;;;;;;6.88;1.38;;;;;;;;;;5072365;28;20036;-59
2021/04/05 03:28:37;;;;;;;8.32;1.55;;;;;;;;;;5072326;28;20047;-59
2021/04/05 03:31:12;;;;;;;7.53;1.77;;;;;;;;;;5071978;28;20451;-60
2021/04/05 03:33:42;;;;;;;12.57;1.80;;;;;;;;;;5072414;28;20427;-60
2021/04/05 03:36:12;;;;;;;7.22;1.48;;;;;;;;;;5072235;28;20116;-60
2021/04/05 03:38:39;;;;;;;7.35;1.40;;;;;;;;;;5072530;28;20020;-60
2021/04/05 03:41:11;;;;;;;8.75;1.50;;;;;;;;;;5072440;28;20039;-60
2021/04/05 03:43:42;;;;;;;10.70;1.50;;;;;;;;;;5072314;28;20361;-60
2021/04/05 03:46:16;;;;;;;8.93;1.48;;;;;;;;;;5072243;28;20028;-60
2021/04/05 03:48:51;;;;;;;8.57;1.48;;;;;;;;;;5072217;28;20090;-60
2021/04/05 03:51:23;;;;;;;8.35;1.60;;;;;;;;;;5072154;28;20017;-60
2021/04/05 03:53:53;;;;;;;11.18;1.30;;;;;;;;;;5072438;28;20025;-60
2021/04/05 03:56:22;;;;;;;6.85;1.20;;;;;;;;;;5072168;28;20457;-60
2021/04/05 03:58:51;;;;;;;5.32;1.50;;;;;;;;;;5072025;28;20017;-60
2021/04/05 04:01:24;;;;;;;6.65;1.50;;;;;;;;;;5072071;28;20025;-60
2021/04/05 04:04:04;;;;;;;14.82;1.60;;;;;;;;;;5072080;28;20100;-60
2021/04/05 04:06:43;;;;;;;7.25;1.60;;;;;;;;;;5072050;28;20033;-60
2021/04/05 04:09:11;;;;;;;5.25;1.25;;;;;;;;;;5070888;28;20116;-60
2021/04/05 04:11:39;;;;;;;5.60;1.33;;;;;;;;;;5071902;28;20013;-60
2021/04/05 04:14:07;;;;;;;5.25;1.13;;;;;;;;;;5072019;28;20418;-60
2021/04/05 04:16:35;;;;;;;6.07;1.40;;;;;;;;;;5071901;28;20067;-61
2021/04/05 04:19:04;;;;;;;4.82;1.17;;;;;;;;;;5071827;28;20023;-60
2021/04/05 04:21:31;;;;;;;5.75;1.20;;;;;;;;;;5072047;28;20508;-60
2021/04/05 04:23:58;;;;;;;9.48;1.17;;;;;;;;;;5071825;28;20025;-61
2021/04/05 04:26:26;;;;;;;5.22;1.17;;;;;;;;;;5070500;28;20032;-60
2021/04/05 04:28:53;;;;;;;8.93;1.30;;;;;;;;;;5071973;28;20016;-60
2021/04/05 04:31:23;;;;;;;7.53;1.17;;;;;;;;;;5070624;28;20381;-59
2021/04/05 04:33:50;;;;;;;9.20;1.48;;;;;;;;;;5071702;28;20379;-60
2021/04/05 04:36:26;;;;;;;7.60;1.27;;;;;;;;;;5071671;28;20524;-60
2021/04/05 04:38:57;;;;;;;6.75;1.88;;;;;;;;;;5071859;28;20460;-60
2021/04/05 04:41:25;;;;;;;10.18;1.20;;;;;;;;;;5071817;28;20413;-60
2021/04/05 04:43:56;;;;;;;3.08;1.10;;;;;;;;;;5073879;28;20538;-60
2021/04/05 04:46:23;;;;;;;4.57;1.00;;;;;;;;;;5075142;28;20028;-60
2021/04/05 04:49:03;;;;;;;3.95;1.17;;;;;;;;;;5075251;28;20025;-60
2021/04/05 04:51:31;;;;;;;9.60;1.85;;;;;;;;;;5075043;28;20013;-60
2021/04/05 04:53:59;;;;;;;5.97;1.30;;;;;;;;;;5075055;28;20166;-61
2021/04/05 04:56:26;;;;;;;5.53;1.23;;;;;;;;;;5075140;28;20016;-60
2021/04/05 04:59:04;;;;;;;6.65;1.10;;;;;;;;;;5075098;28;20100;-61
2021/04/05 05:01:32;;;;;;;7.35;1.45;;;;;;;;;;5074845;28;20027;-60
2021/04/05 05:04:10;;;;;;;4.70;1.55;;;;;;;;;;5074766;28;20484;-60
2021/04/05 05:06:37;;;;;;;9.48;1.55;;;;;;;;;;5074573;28;20101;-60
2021/04/05 05:09:05;;;;;;;10.10;2.08;;;;;;;;;;5074829;28;20522;-60
2021/04/05 05:11:32;;;;;;;9.85;1.23;;;;;;;;;;5074760;28;20106;-60
2021/04/05 05:13:59;;;;;;;5.53;1.33;;;;;;;;;;5074769;28;20020;-60
2021/04/05 05:16:26;;;;;;;5.55;1.23;;;;;;;;;;5074909;28;20027;-60
2021/04/05 05:18:58;;;;;;;5.82;1.20;;;;;;;;;;5074611;28;20375;-60
2021/04/05 05:21:27;;;;;;;5.07;1.10;;;;;;;;;;5074511;28;20024;-60
2021/04/05 05:23:54;;;;;;;10.98;1.20;;;;;;;;;;5074654;28;20085;-59
2021/04/05 05:26:23;;;;;;;7.32;1.42;;;;;;;;;;5074571;28;20553;-60
2021/04/05 05:28:53;;;;;;;8.50;1.52;;;;;;;;;;5074451;28;20020;-59
2021/04/05 05:31:21;;;;;;;5.00;1.13;;;;;;;;;;5074285;28;20013;-60
2021/04/05 05:33:48;;;;;;;5.53;1.38;;;;;;;;;;5074484;28;20480;-59
2021/04/05 05:36:18;;;;;;;5.70;1.20;;;;;;;;;;5074204;28;20087;-60
2021/04/05 05:38:48;;;;;;;7.03;1.25;;;;;;;;;;5074012;28;20025;-60
2021/04/05 05:41:26;;;;;;;7.65;1.10;;;;;;;;;;5074258;28;20099;-59
2021/04/05 05:44:05;;;;;;;5.88;1.23;;;;;;;;;;5074195;28;20021;-60
2021/04/05 05:46:38;;;;;;;8.60;1.35;;;;;;;;;;5072976;28;20433;-60
2021/04/05 05:49:11;;;;;;;6.35;1.10;;;;;;;;;;5073868;28;20033;-59
2021/04/05 05:51:56;;;;;;;3.63;1.15;;;;;;;;;;5073945;28;20031;-59
2021/04/05 05:54:39;;;;;;;8.73;1.60;;;;;;;;;;5073552;28;20472;-60
2021/04/05 05:57:08;;;;;;;5.78;1.00;;;;;;;;;;5073756;28;20082;-60
2021/04/05 05:59:41;;;;;;;4.47;1.17;;;;;;;;;;5073823;28;20028;-60
2021/04/05 06:02:16;;;;;;;8.77;1.60;;;;;;;;;;5073792;28;20027;-60
2021/04/05 06:04:52;;;;;;;3.67;1.00;;;;;;;;;;5073462;28;20391;-60
2021/04/05 06:07:32;;;;;;;4.20;1.23;;;;;;;;;;5073564;28;20029;-60
2021/04/05 06:10:11;;;;;;;8.00;1.55;;;;;;;;;;5073514;28;20020;-60
2021/04/05 06:13:01;;;;;;;5.38;1.27;;;;;;;;;;5073475;28;20035;-59
2021/04/05 06:15:29;;;;;;;5.65;1.05;;;;;;;;;;5073381;28;20016;-59
2021/04/05 06:17:59;;;;;;;5.93;1.17;;;;;;;;;;5073603;28;20480;-60
2021/04/05 06:20:38;;;;;;;5.82;1.20;;;;;;;;;;5073456;28;20032;-60
2021/04/05 06:23:23;;;;;;;6.15;1.25;;;;;;;;;;5073215;28;20114;-61
2021/04/05 06:25:51;;;;;;;5.93;1.33;;;;;;;;;;5073368;28;20020;-61
2021/04/05 06:28:17;;;;;;;6.45;1.20;;;;;;;;;;5073169;28;20484;-59
2021/04/05 06:30:57;;;;;;;6.13;1.67;;;;;;;;;;5073318;28;20486;-61
2021/04/05 06:33:35;;;;;;;2.72;1.05;;;;;;;;;;5073323;28;20033;-60
2021/04/05 06:36:12;;;;;;;3.80;1.10;;;;;;;;;;5073224;28;20107;-60
2021/04/05 06:38:42;;;;;;;4.60;1.40;;;;;;;;;;5073101;28;20016;-61
2021/04/05 06:41:29;;;;;;;7.70;1.05;;;;;;;;;;5072917;28;20029;-60
2021/04/05 06:44:14;;;;;;;4.95;1.20;;;;;;;;;;5068915;28;20040;-60
2021/04/05 06:46:50;;;;;;;7.95;1.48;;;;;;;;;;5072862;28;20043;-60
2021/04/05 06:49:35;;;;;;;8.35;1.40;;;;;;;;;;5073123;28;20099;-61
2021/04/05 06:52:28;;;;;;;7.93;1.27;;;;;;;;;;5072811;28;20433;-61
2021/04/05 06:55:01;;;;;;;9.32;1.50;;;;;;;;;;5071582;28;20040;-60
2021/04/05 06:57:37;;;;;;;3.40;1.13;;;;;;;;;;5072852;28;20028;-61
2021/04/05 07:00:10;;;;;;;8.52;1.50;;;;;;;;;;5072979;28;20429;-61
2021/04/05 07:03:06;;;;;;;7.22;1.35;;;;;;;;;;5072473;28;20028;-60
2021/04/05 07:05:36;;;;;;;3.38;1.05;;;;;;;;;;5071906;28;20625;-60
2021/04/05 07:08:03;;;;;;;6.80;1.77;;;;;;;;;;5072642;28;20032;-60
2021/04/05 07:10:36;;;;;;;4.70;1.38;;;;;;;;;;5072475;28;20052;-59
2021/04/05 07:13:07;;;;;;;4.47;1.08;;;;;;;;;;5072396;28;20074;-60
2021/04/05 07:15:46;;;;;;;4.95;0.93;;;;;;;;;;5071475;28;20021;-60
2021/04/05 07:18:31;;;;;;;10.95;1.85;;;;;;;;;;5072703;28;20996;-60
2021/04/05 07:21:02;;;;;;;8.55;1.27;;;;;;;;;;5072600;28;20490;-59
2021/04/05 07:23:55;;;;;;;7.03;1.40;;;;;;;;;;5071172;28;20115;-60
2021/04/05 07:26:27;;;;;;;9.52;1.60;;;;;;;;;;5071155;28;20051;-60
2021/04/05 07:29:03;;;;;;;5.80;1.63;;;;;;;;;;5072339;28;20051;-60
2021/04/05 07:31:48;;;;;;;9.52;1.13;;;;;;;;;;5072204;28;20031;-60
2021/04/05 07:34:29;;;;;;;7.47;1.75;;;;;;;;;;5072288;28;20115;-60
2021/04/05 07:37:05;;;;;;;5.28;1.30;;;;;;;;;;5072310;28;20017;-60
2021/04/05 07:39:39;;;;;;;6.13;1.70;;;;;;;;;;5072437;28;20025;-60
2021/04/05 07:42:15;;;;;;;7.70;1.70;;;;;;;;;;5072391;28;20028;-60
2021/04/05 07:44:52;;;;;;;6.43;1.20;;;;;;;;;;5072197;28;20039;-60
2021/04/05 07:47:37;;;;;;;7.60;1.90;;;;;;;;;;5072158;28;20083;-59
2021/04/05 07:50:16;;;;;;;9.88;1.42;;;;;;;;;;5072236;28;20031;-60
2021/04/05 07:52:47;;;;;;;11.00;1.83;;;;;;;;;;5071974;28;20032;-60
2021/04/05 07:55:14;;;;;;;9.02;1.52;;;;;;;;;;5072127;28;20031;-60
2021/04/05 07:58:01;;;;;;;8.50;1.45;;;;;;;;;;5071038;28;20024;-60
2021/04/05 08:00:36;;;;;;;8.88;1.30;;;;;;;;;;5071995;28;20019;-59
2021/04/05 08:03:12;;;;;;;9.10;1.92;;;;;;;;;;5072142;28;20025;-60
2021/04/05 08:05:50;;;;;;;6.22;1.40;;;;;;;;;;5071756;28;20519;-59
2021/04/05 08:08:30;;;;;;;9.70;1.38;;;;;;;;;;5071976;28;20035;-60
2021/04/05 08:11:13;;;;;;;7.57;1.67;;;;;;;;;;5072175;28;20054;-59
2021/04/05 08:13:49;;;;;;;11.02;1.40;;;;;;;;;;5071947;28;20052;-61
2021/04/05 08:16:19;;;;;;;7.00;1.42;;;;;;;;;;5073833;28;20419;-60
2021/04/05 08:18:55;;;;;;;9.15;1.80;;;;;;;;;;5075657;28;20060;-59
2021/04/05 08:21:30;;;;;;;6.72;1.38;;;;;;;;;;5075561;28;20028;-58
2021/04/05 08:24:13;;;;;;;8.30;1.77;;;;;;;;;;5075595;28;20439;-59
2021/04/05 08:26:58;;;;;;;9.00;1.65;;;;;;;;;;5075521;28;20039;-60
2021/04/05 08:29:54;;;;;;;6.47;1.55;;;;;;;;;;5075385;28;20029;-60
2021/04/05 08:32:40;;;;;;;7.60;1.40;;;;;;;;;;5055857;28;20120;-60
2021/04/05 08:35:27;;;;;;;6.00;1.45;;;;;;;;;;5075265;28;20028;-61
2021/04/05 08:38:01;;;;;;;8.20;1.80;;;;;;;;;;5071270;28;20033;-61
2021/04/05 08:40:31;;;;;;;7.68;1.55;;;;;;;;;;5075360;28;20024;-61
2021/04/05 08:43:17;;;;;;;7.30;1.33;;;;;;;;;;5075262;28;20495;-61
2021/04/05 08:45:50;;;;;;;3.85;1.20;;;;;;;;;;5074041;28;20417;-60
2021/04/05 08:48:19;;;;;;;9.43;1.20;;;;;;;;;;5075304;28;20044;-60
2021/04/05 08:51:06;;;;;;;6.80;1.40;;;;;;;;;;5075403;28;20482;-60
2021/04/05 08:53:36;;;;;;;7.45;1.38;;;;;;;;;;5075244;28;20024;-60
2021/04/05 08:56:03;;;;;;;9.90;2.08;;;;;;;;;;5074990;28;20054;-59
2021/04/05 08:58:34;;;;;;;6.90;1.30;;;;;;;;;;5075068;28;20105;-60
2021/04/05 09:01:04;;;;;;;8.07;1.45;;;;;;;;;;5075039;28;20031;-60
2021/04/05 09:03:33;;;;;;;4.82;1.52;;;;;;;;;;5074896;28;20082;-60
2021/04/05 09:06:01;;;;;;;8.00;1.38;;;;;;;;;;5074552;28;20102;-61
2021/04/05 09:08:28;;;;;;;8.77;1.45;;;;;;;;;;5074872;28;20024;-60
2021/04/05 09:10:55;;;;;;;8.20;1.67;;;;;;;;;;5074722;28;20087;-60
2021/04/05 09:13:41;;;;;;;5.30;1.17;;;;;;;;;;5074769;28;20024;-60
2021/04/05 09:16:34;;;;;;;6.40;1.50;;;;;;;;;;5074708;28;20083;-60
2021/04/05 09:19:15;;;;;;;6.60;1.33;;;;;;;;;;5066102;28;20028;-60
2021/04/05 09:22:00;;;;;;;8.82;1.70;;;;;;;;;;5074559;28;20057;-60
2021/04/05 09:24:36;;;;;;;8.75;1.63;;;;;;;;;;5074426;28;20090;-61
2021/04/05 09:27:21;;;;;;;13.65;1.83;;;;;;;;;;5073854;28;20503;-60
2021/04/05 09:30:06;;;;;;;7.13;1.52;;;;;;;;;;5074479;28;20066;-60
2021/04/05 09:32:42;;;;;;;5.55;1.25;;;;;;;;;;5074128;28;20023;-60
2021/04/05 09:35:25;;;;;;;9.07;1.48;;;;;;;;;;5074271;28;20520;-60
2021/04/05 09:38:01;;;;;;;4.80;1.48;;;;;;;;;;5074326;28;20070;-60
2021/04/05 09:40:46;;;;;;;8.27;1.48;;;;;;;;;;5074428;28;20017;-60
2021/04/05 09:43:32;;;;;;;7.30;1.52;;;;;;;;;;5074322;28;20017;-60
2021/04/05 09:46:08;;;;;;;6.38;1.30;;;;;;;;;;5074271;28;20090;-59
2021/04/05 09:48:51;;;;;;;4.88;1.40;;;;;;;;;;5074171;28;20064;-60
2021/04/05 09:51:29;;;;;;;10.48;1.33;;;;;;;;;;5074066;28;20029;-60
2021/04/05 09:54:05;;;;;;;6.43;1.20;;;;;;;;;;5073889;28;20059;-59
2021/04/05 09:56:35;;;;;;;6.88;1.40;;;;;;;;;;5073899;28;20081;-60
2021/04/05 09:59:02;;;;;;;8.50;1.30;;;;;;;;;;5073708;28;20047;-60
2021/04/05 10:01:31;;;;;;;7.97;1.60;;;;;;;;;;5073862;28;20023;-60
2021/04/05 10:04:01;;;;;;;12.23;1.95;;;;;;;;;;5073640;28;20027;-60
2021/04/05 10:06:31;;;;;;;5.45;1.35;;;;;;;;;;5073454;28;20048;-60
2021/04/05 10:08:59;;;;;;;12.38;1.70;;;;;;;;;;5073854;28;20031;-59
2021/04/05 10:11:31;;;;;;;5.97;1.40;;;;;;;;;;5073450;28;20035;-60
2021/04/05 10:14:10;;;;;;;10.90;1.70;;;;;;;;;;5072256;28;20385;-59
2021/04/05 10:16:38;;;;;;;8.80;1.45;;;;;;;;;;5073609;28;20040;-61
2021/04/05 10:19:12;;;;;;;6.90;1.38;;;;;;;;;;5073589;28;20582;-60
2021/04/05 10:21:52;;;;;;;9.23;1.52;;;;;;;;;;5073489;28;20024;-60
2021/04/05 10:24:23;;;;;;;5.63;1.48;;;;;;;;;;5072248;28;20025;-59
2021/04/05 10:26:52;;;;;;;8.05;1.50;;;;;;;;;;5073243;28;20032;-60
2021/04/05 10:29:19;;;;;;;10.50;1.58;;;;;;;;;;5073124;28;20012;-60
2021/04/05 10:31:49;;;;;;;9.38;1.77;;;;;;;;;;5073235;28;20431;-60
2021/04/05 10:34:17;;;;;;;7.00;1.70;;;;;;;;;;5073197;28;20024;-60
2021/04/05 10:36:48;;;;;;;6.10;1.30;;;;;;;;;;5072917;28;20025;-59
2021/04/05 10:39:15;;;;;;;8.80;1.77;;;;;;;;;;5073390;28;20036;-59
2021/04/05 10:41:56;;;;;;;9.25;1.65;;;;;;;;;;5072918;28;20103;-60
2021/04/05 10:44:25;;;;;;;7.30;1.50;;;;;;;;;;5073080;28;20028;-60
2021/04/05 10:46:54;;;;;;;4.03;1.20;;;;;;;;;;5072869;28;20074;-60
2021/04/05 10:49:25;;;;;;;7.53;1.60;;;;;;;;;;5073021;28;20116;-60
2021/04/05 10:52:12;;;;;;;4.32;1.40;;;;;;;;;;5073414;28;20012;-60
2021/04/05 10:54:42;;;;;;;6.38;1.42;;;;;;;;;;5072922;28;20090;-59
2021/04/05 10:57:29;;;;;;;13.40;1.60;;;;;;;;;;5072879;28;20008;-59
2021/04/05 10:59:57;;;;;;;10.60;1.67;;;;;;;;;;5072504;28;20476;-60
2021/04/05 11:02:24;;;;;;;8.32;1.83;;;;;;;;;;5072634;28;20025;-59
2021/04/05 11:04:58;;;;;;;7.55;1.67;;;;;;;;;;5072628;28;20041;-60
2021/04/05 11:07:26;;;;;;;11.82;1.88;;;;;;;;;;5072560;28;20166;-59
2021/04/05 11:09:56;;;;;;;6.60;1.20;;;;;;;;;;5072446;28;20078;-60
2021/04/05 11:12:23;;;;;;;7.82;1.40;;;;;;;;;;5084066;28;20028;-60
2021/04/05 11:14:52;;;;;;;12.43;1.92;;;;;;;;;;5073518;28;20024;-61
2021/04/05 11:17:19;;;;;;;10.70;1.50;;;;;;;;;;5070854;28;20044;-60
2021/04/05 11:19:52;;;;;;;9.48;1.50;;;;;;;;;;5071613;28;20466;-61
2021/04/05 11:22:18;;;;;;;;;;;;;;;;;;5071620;28;20430;-60
2021/04/05 11:24:46;;;;;;;12.15;1.50;;;;;;;;;;5071268;28;19948;-60
2021/04/05 11:27:16;;;;;;;11.02;1.73;;;;;;;;;;5079119;28;20036;-64
2021/04/05 11:29:45;;;;;;;12.23;1.50;;;;;;;;;;5067509;28;20080;-63
2021/04/05 11:32:19;;;;;;;12.50;1.80;;;;;;;;;;5080896;28;20501;-62
2021/04/05 11:34:50;;;;;;;13.48;2.33;;;;;;;;;;5078756;28;20074;-65
2021/04/05 11:37:18;;;;;;;14.68;1.92;;;;;;;;;;5079454;28;20106;-67
2021/04/05 11:39:56;;;;;;;8.23;1.60;;;;;;;;;;5071846;28;20024;-64
2021/04/05 11:42:23;;;;;;;14.68;2.53;;;;;;;;;;5074276;28;20029;-68
2021/04/05 11:44:56;;;;;;;13.50;2.25;;;;;;;;;;5072907;28;20035;-65
2021/04/05 11:47:22;;;;;;;;;;;;;;;;;;5070757;28;20044;-70
2021/04/05 11:49:49;;;;;;;19.38;2.38;;;;;;;;;;5081936;28;19931;-71
2021/04/05 11:52:29;;;;;;;9.40;1.63;;;;;;;;;;5081476;28;20086;-62
2021/04/05 11:54:58;;;;;;;18.75;2.15;;;;;;;;;;5078186;28;20033;-62
2021/04/05 11:57:54;;;;;;;20.58;2.22;;;;;;;;;;5076743;28;20060;-63
2021/04/05 12:00:29;;;;;;;10.88;2.10;;;;;;;;;;5059260;28;20032;-61
2021/04/05 12:02:56;;;;;;;13.35;2.08;;;;;;;;;;5072603;28;20017;-62
2021/04/05 12:05:26;;;;;;;16.85;2.08;;;;;;;;;;5070621;28;20036;-61
2021/04/05 12:07:57;;;;;;;25.85;2.15;;;;;;;;;;5071010;28;20040;-61
2021/04/05 12:10:27;;;;;;;31.50;3.22;;;;;;;;;;5072479;28;20419;-64
2021/04/05 12:13:15;;;;;;;13.85;2.30;;;;;;;;;;5076023;28;20073;-64
2021/04/05 12:15:44;;;;;;;18.80;2.45;;;;;;;;;;5074494;28;20089;-65
2021/04/05 12:18:11;;;;;;;26.40;2.88;;;;;;;;;;5078969;28;20081;-67
2021/04/05 12:20:40;;;;;;;20.15;2.08;;;;;;;;;;5081269;28;20028;-62
2021/04/05 12:23:10;;;;;;;24.75;2.42;;;;;;;;;;5077628;28;20113;-60
2021/04/05 12:25:40;;;;;;;19.70;2.25;;;;;;;;;;5073585;28;20052;-63
2021/04/05 12:28:11;;;;;;;10.90;2.00;;;;;;;;;;5075423;28;20063;-66
2021/04/05 12:30:39;;;;;;;13.05;2.20;;;;;;;;;;5075941;28;20491;-68
2021/04/05 12:33:07;;;;;;;19.02;2.80;;;;;;;;;;5078864;28;20086;-66
2021/04/05 12:35:35;;;;;;;22.48;2.63;;;;;;;;;;5075877;28;20016;-66
2021/04/05 12:38:05;;;;;;;26.05;2.90;;;;;;;;;;5078110;28;20020;-63
2021/04/05 12:40:37;;;;;;;14.05;2.15;;;;;;;;;;5075705;28;20360;-63
2021/04/05 12:43:24;;;;;;;19.40;2.57;;;;;;;;;;5076613;28;20021;-63
2021/04/05 12:45:55;;;;;;;22.23;2.10;;;;;;;;;;5076653;28;20060;-63
2021/04/05 12:48:30;;;;;;;14.60;2.22;;;;;;;;;;5080395;28;20032;-63
2021/04/05 12:51:02;;;;;;;20.25;2.58;;;;;;;;;;5073109;28;20793;-63
2021/04/05 12:53:30;;;;;;;20.60;2.45;;;;;;;;;;5076208;28;20108;-62
2021/04/05 12:55:59;;;;;;;16.85;2.47;;;;;;;;;;5082493;28;20025;-63
2021/04/05 12:58:36;;;;;;;21.30;2.35;;;;;;;;;;5077603;28;20410;-62
2021/04/05 13:01:07;;;;;;;16.60;2.10;;;;;;;;;;5072491;28;20031;-62
2021/04/05 13:03:42;;;;;;;28.75;2.90;;;;;;;;;;5070865;28;20107;-63
2021/04/05 13:06:14;;;;;;;16.38;2.33;;;;;;;;;;5074268;28;20400;-63
2021/04/05 13:08:41;;;;;;;16.20;2.45;;;;;;;;;;5073647;28;20069;-62
2021/04/05 13:11:14;;;;;;;25.35;2.58;;;;;;;;;;5076293;28;20372;-65
2021/04/05 13:14:01;;;;;;;21.05;2.85;;;;;;;;;;5071504;28;20829;-61
2021/04/05 13:16:31;;;;;;;24.00;2.90;;;;;;;;;;5072893;28;20464;-64
2021/04/05 13:19:00;;;;;;;25.58;3.33;;;;;;;;;;5073303;28;20031;-64
2021/04/05 13:21:27;;;;;;;29.30;3.08;;;;;;;;;;5075702;28;20415;-66
2021/04/05 13:23:57;;;;;;;12.07;2.38;;;;;;;;;;5073163;28;20021;-63
2021/04/05 13:26:32;;;;;;;16.48;2.65;;;;;;;;;;5075380;28;20051;-63
2021/04/05 13:28:59;;;;;;;21.77;2.65;;;;;;;;;;5075510;28;20538;-61
2021/04/05 13:31:27;;;;;;;19.63;2.53;;;;;;;;;;5078188;28;20031;-67
2021/04/05 13:33:55;;;;;;;21.52;2.53;;;;;;;;;;5074225;28;20469;-64
2021/04/05 13:36:24;;;;;;;16.00;2.40;;;;;;;;;;5075099;28;20541;-64
2021/04/05 13:39:02;;;;;;;22.05;2.90;;;;;;;;;;5067461;28;20111;-67
2021/04/05 13:41:31;;;;;;;36.03;3.47;;;;;;;;;;5072968;28;20472;-69
2021/04/05 13:44:05;;;;;;;33.50;2.72;;;;;;;;;;5075240;28;20078;-65
2021/04/05 13:46:32;;;;;;;27.88;3.65;;;;;;;;;;5074309;28;20060;-68
2021/04/05 13:49:06;;;;;;;31.00;3.45;;;;;;;;;;5078817;28;20558;-69
2021/04/05 13:51:34;;;;;;;21.67;2.80;;;;;;;;;;5072199;28;20020;-67
2021/04/05 13:54:03;;;;;;;21.10;2.97;;;;;;;;;;5079402;28;20375;-69
2021/04/05 13:56:32;;;;;;;33.35;3.70;;;;;;;;;;5075007;28;20472;-65
2021/04/05 13:59:00;;;;;;;45.88;4.93;;;;;;;;;;5075953;28;20542;-60
2021/04/05 14:01:29;;;;;;;38.85;4.45;;;;;;;;;;5072959;28;20374;-68
2021/04/05 14:03:57;;;;;;;37.88;3.92;;;;;;;;;;5072180;28;20024;-63
2021/04/05 14:06:27;;;;;;;28.83;3.67;;;;;;;;;;5072554;28;20036;-68
2021/04/05 14:08:55;;;;;;;26.02;4.53;;;;;;;;;;5073253;28;20167;-59
2021/04/05 14:11:24;;;;;;;27.65;2.80;;;;;;;;;;5072018;28;20474;-65
2021/04/05 14:13:55;;;;;;;31.38;3.17;;;;;;;;;;5070575;28;20710;-62
2021/04/05 14:16:40;;;;;;;23.73;2.80;;;;;;;;;;5074359;28;20032;-65
2021/04/05 14:19:13;;;;;;;26.27;3.50;;;;;;;;;;5074674;28;20086;-66
2021/04/05 14:21:46;;;;;;;31.48;2.85;;;;;;;;;;5072197;28;20028;-66
2021/04/05 14:24:22;;;;;;;24.73;3.05;;;;;;;;;;5074181;28;20064;-64
2021/04/05 14:26:50;;;;;;;23.50;2.97;;;;;;;;;;5070670;28;20029;-68
2021/04/05 14:29:21;;;;;;;28.70;3.05;;;;;;;;;;5071905;28;20028;-64
2021/04/05 14:31:50;;;;;;;30.90;3.33;;;;;;;;;;5077715;28;20024;-65
2021/04/05 14:34:25;;;;;;;18.77;2.53;;;;;;;;;;5072079;28;20388;-61
2021/04/05 14:37:05;;;;;;;28.00;3.45;;;;;;;;;;5072695;28;20063;-61
2021/04/05 14:39:48;;;;;;;29.38;3.15;;;;;;;;;;5070770;28;20032;-62
2021/04/05 14:42:26;;;;;;;38.78;3.53;;;;;;;;;;5071845;28;20047;-63
2021/04/05 14:44:59;;;;;;;31.88;3.65;;;;;;;;;;5071984;28;20495;-61
2021/04/05 14:47:27;;;;;;;28.90;3.20;;;;;;;;;;5073785;28;20039;-60
2021/04/05 14:49:55;;;;;;;39.05;4.35;;;;;;;;;;5077682;28;20029;-66
2021/04/05 14:52:27;;;;;;;31.75;3.40;;;;;;;;;;5071686;28;20024;-66
2021/04/05 14:54:55;;;;;;;33.70;3.95;;;;;;;;;;5073943;28;20107;-65
2021/04/05 14:57:23;;;;;;;32.50;3.35;;;;;;;;;;5071554;28;20033;-62
2021/04/05 14:59:52;;;;;;;31.60;3.53;;;;;;;;;;5075363;28;20059;-62
2021/04/05 15:02:21;;;;;;;30.25;3.75;;;;;;;;;;5070139;28;20024;-62
2021/04/05 15:04:57;;;;;;;38.90;3.75;;;;;;;;;;5073264;28;20051;-62
2021/04/05 15:07:26;;;;;;;33.47;3.83;;;;;;;;;;5075282;28;20036;-63